createdAt,value
2022-08-26T00:02:07.250Z,18.33
2022-08-26T00:04:35.573Z,20.10
2022-08-26T00:07:03.914Z,14.37
2022-08-26T00:09:37.268Z,13.27
2022-08-26T00:12:12.385Z,13.27
2022-08-26T00:14:41.151Z,15.47
2022-08-26T00:17:11.051Z,23.30
2022-08-26T00:19:40.301Z,15.30
2022-08-26T00:22:08.473Z,17.77
2022-08-26T00:24:36.378Z,13.60
2022-08-26T00:27:04.374Z,14.53
2022-08-26T00:29:37.567Z,20.07
2022-08-26T00:32:07.324Z,10.53
2022-08-26T00:34:36.201Z,13.33
2022-08-26T00:37:04.319Z,14.70
2022-08-26T00:39:37.070Z,11.63
2022-08-26T00:42:05.369Z,17.63
2022-08-26T00:44:33.614Z,13.13
2022-08-26T00:47:06.895Z,20.43
2022-08-26T00:49:38.047Z,14.93
2022-08-26T00:52:11.917Z,13.00
2022-08-26T00:54:46.893Z,10.83
2022-08-26T00:57:17.085Z,21.30
2022-08-26T00:59:46.556Z,15.17
2022-08-26T01:02:20.186Z,15.70
2022-08-26T01:04:55.549Z,15.80
2022-08-26T01:07:24.993Z,14.13
2022-08-26T01:09:54.188Z,14.93
2022-08-26T01:12:23.443Z,14.33
2022-08-26T01:14:53.445Z,14.23
2022-08-26T01:17:23.105Z,19.93
2022-08-26T01:19:53.754Z,14.03
2022-08-26T01:22:28.291Z,15.00
2022-08-26T01:24:58.779Z,17.23
2022-08-26T01:27:32.474Z,18.20
2022-08-26T01:30:01.674Z,13.33
2022-08-26T01:32:30.864Z,19.87
2022-08-26T01:35:00.224Z,20.03
2022-08-26T01:37:30.163Z,14.40
2022-08-26T01:40:00.504Z,18.53
2022-08-26T01:42:29.140Z,15.67
2022-08-26T01:44:59.108Z,13.27
2022-08-26T01:47:30.760Z,14.67
2022-08-26T01:50:00.259Z,15.40
2022-08-26T01:52:29.879Z,17.60
2022-08-26T01:55:01.720Z,17.80
2022-08-26T01:57:29.791Z,13.40
2022-08-26T01:59:59.855Z,15.57
2022-08-26T02:02:28.200Z,14.40
2022-08-26T02:04:59.718Z,13.83
2022-08-26T02:07:29.190Z,13.17
2022-08-26T02:09:57.588Z,12.07
2022-08-26T02:12:27.151Z,12.67
2022-08-26T02:14:55.926Z,19.00
2022-08-26T02:17:25.857Z,17.53
2022-08-26T02:19:54.110Z,13.93
2022-08-26T02:22:24.595Z,16.57
2022-08-26T02:24:53.986Z,13.80
2022-08-26T02:27:23.867Z,17.83
2022-08-26T02:29:55.241Z,13.63
2022-08-26T02:32:23.891Z,13.63
2022-08-26T02:34:52.356Z,14.70
2022-08-26T02:37:20.541Z,11.80
2022-08-26T02:39:51.010Z,12.87
2022-08-26T02:42:20.251Z,15.93
2022-08-26T02:44:50.874Z,18.73
2022-08-26T02:47:20.132Z,15.17
2022-08-26T02:49:52.930Z,14.90
2022-08-26T02:52:21.810Z,14.60
2022-08-26T02:54:49.793Z,19.80
2022-08-26T02:57:17.760Z,14.37
2022-08-26T02:59:45.743Z,13.07
2022-08-26T03:02:13.588Z,17.07
2022-08-26T03:04:57.303Z,17.00
2022-08-26T03:07:28.821Z,17.93
2022-08-26T03:09:57.651Z,16.40
2022-08-26T03:12:25.577Z,14.30
2022-08-26T03:14:54.483Z,16.80
2022-08-26T03:17:22.568Z,14.87
2022-08-26T03:19:57.044Z,13.90
2022-08-26T03:22:25.452Z,15.97
2022-08-26T03:24:53.620Z,18.20
2022-08-26T03:27:22.112Z,20.10
2022-08-26T03:30:07.291Z,22.93
2022-08-26T03:32:37.996Z,17.73
2022-08-26T03:35:11.200Z,10.20
2022-08-26T03:37:39.132Z,16.50
2022-08-26T03:40:09.080Z,14.70
2022-08-26T03:42:38.199Z,16.70
2022-08-26T03:45:07.192Z,16.23
2022-08-26T03:47:35.490Z,24.07
2022-08-26T03:50:06.921Z,11.77
2022-08-26T03:52:38.758Z,22.83
2022-08-26T03:55:11.533Z,15.43
2022-08-26T03:57:39.606Z,12.57
2022-08-26T04:00:09.243Z,15.57
2022-08-26T04:02:37.487Z,21.00
2022-08-26T04:05:06.133Z,12.60
2022-08-26T04:07:34.140Z,16.60
2022-08-26T04:10:04.361Z,15.20
2022-08-26T04:12:33.322Z,18.47
2022-08-26T04:15:01.305Z,17.23
2022-08-26T04:17:31.459Z,15.00
2022-08-26T04:20:00.866Z,16.17
2022-08-26T04:22:29.411Z,19.27
2022-08-26T04:24:57.523Z,18.23
2022-08-26T04:27:27.250Z,17.27
2022-08-26T04:29:55.434Z,24.47
2022-08-26T04:32:23.710Z,15.30
2022-08-26T04:34:51.643Z,15.63
2022-08-26T04:37:19.657Z,17.40
2022-08-26T04:39:52.961Z,18.97
2022-08-26T04:42:26.046Z,18.40
2022-08-26T04:44:55.836Z,13.13
2022-08-26T04:47:23.740Z,17.87
2022-08-26T04:49:53.385Z,16.33
2022-08-26T04:52:21.291Z,18.83
2022-08-26T04:54:49.364Z,23.67
2022-08-26T04:57:17.391Z,16.20
2022-08-26T04:59:45.359Z,19.23
2022-08-26T05:02:15.459Z,15.73
2022-08-26T05:04:44.034Z,17.50
2022-08-26T05:07:13.037Z,17.57
2022-08-26T05:09:41.659Z,17.33
2022-08-26T05:12:09.737Z,19.90
2022-08-26T05:14:42.757Z,19.80
2022-08-26T05:17:14.849Z,14.20
2022-08-26T05:19:45.275Z,21.73
2022-08-26T05:22:14.527Z,13.50
2022-08-26T05:24:43.412Z,13.93
2022-08-26T05:27:12.544Z,21.63
2022-08-26T05:29:40.801Z,18.83
2022-08-26T05:32:09.488Z,17.67
2022-08-26T05:34:39.063Z,22.77
2022-08-26T05:37:08.412Z,18.93
2022-08-26T05:39:36.335Z,18.87
2022-08-26T05:42:05.853Z,17.67
2022-08-26T05:44:54.093Z,20.93
2022-08-26T05:47:21.755Z,24.10
2022-08-26T05:49:51.549Z,16.43
2022-08-26T05:52:21.471Z,24.17
2022-08-26T05:54:55.570Z,18.27
2022-08-26T05:57:23.335Z,19.77
2022-08-26T05:59:51.753Z,15.40
2022-08-26T06:02:20.853Z,16.30
2022-08-26T06:04:48.688Z,21.03
2022-08-26T06:07:17.246Z,17.73
2022-08-26T06:09:48.333Z,19.73
2022-08-26T06:12:21.354Z,15.17
2022-08-26T06:14:56.034Z,21.43
2022-08-26T06:17:26.848Z,14.27
2022-08-26T06:19:54.713Z,16.80
2022-08-26T06:22:41.072Z,17.33
2022-08-26T06:25:28.336Z,17.30
2022-08-26T06:27:56.549Z,20.10
2022-08-26T06:30:24.757Z,20.57
2022-08-26T06:32:54.233Z,19.90
2022-08-26T06:35:22.863Z,21.87
2022-08-26T06:37:52.822Z,12.90
2022-08-26T06:40:24.278Z,21.40
2022-08-26T06:42:52.275Z,28.23
2022-08-26T06:45:20.305Z,16.30
2022-08-26T06:47:49.457Z,20.73
2022-08-26T06:50:17.777Z,27.77
2022-08-26T06:52:46.530Z,21.33
2022-08-26T06:55:14.898Z,21.07
2022-08-26T06:57:44.132Z,21.83
2022-08-26T07:00:12.647Z,14.40
2022-08-26T07:02:40.565Z,22.63
2022-08-26T07:05:14.390Z,23.27
2022-08-26T07:07:43.752Z,14.98
2022-08-26T07:10:11.753Z,18.60
2022-08-26T07:12:39.842Z,13.90
2022-08-26T07:15:11.655Z,17.83
2022-08-26T07:17:40.040Z,23.53
2022-08-26T07:20:09.473Z,25.47
2022-08-26T07:22:37.461Z,29.20
2022-08-26T07:25:08.142Z,26.80
2022-08-26T07:27:39.732Z,21.87
2022-08-26T07:30:08.169Z,21.13
2022-08-26T07:32:38.566Z,22.40
2022-08-26T07:35:07.785Z,20.00
2022-08-26T07:37:39.334Z,20.92
2022-08-26T07:40:08.549Z,18.33
2022-08-26T07:42:38.649Z,15.18
2022-08-26T07:45:07.412Z,19.80
2022-08-26T07:47:35.568Z,17.50
2022-08-26T07:50:05.004Z,18.98
2022-08-26T07:52:34.817Z,28.20
2022-08-26T07:55:04.570Z,19.75
2022-08-26T07:57:32.695Z,16.08
2022-08-26T08:00:01.016Z,12.95
2022-08-26T08:02:29.961Z,18.77
2022-08-26T08:04:58.554Z,21.65
2022-08-26T08:07:44.749Z,17.17
2022-08-26T08:10:14.824Z,17.70
2022-08-26T08:12:43.547Z,12.63
2022-08-26T08:15:13.999Z,20.40
2022-08-26T08:17:43.102Z,16.52
2022-08-26T08:20:11.896Z,24.65
2022-08-26T08:22:41.413Z,21.95
2022-08-26T08:25:10.385Z,18.02
2022-08-26T08:27:40.355Z,12.45
2022-08-26T08:30:09.111Z,14.45
2022-08-26T08:32:38.599Z,10.65
2022-08-26T08:35:11.567Z,15.32
2022-08-26T08:37:42.349Z,14.88
2022-08-26T08:40:12.146Z,18.48
2022-08-26T08:42:45.505Z,17.70
2022-08-26T08:45:17.192Z,16.70
2022-08-26T08:47:50.333Z,13.43
2022-08-26T08:50:23.003Z,13.35
2022-08-26T08:52:58.078Z,12.38
2022-08-26T08:55:31.077Z,14.68
2022-08-26T08:58:03.969Z,10.23
2022-08-26T09:00:39.139Z,11.05
2022-08-26T09:03:12.207Z,14.57
2022-08-26T09:05:48.875Z,10.43
2022-08-26T09:08:21.450Z,12.27
2022-08-26T09:10:53.035Z,8.15
2022-08-26T09:13:25.328Z,11.73
2022-08-26T09:16:00.451Z,13.23
2022-08-26T09:18:33.779Z,9.38
2022-08-26T09:21:03.460Z,17.10
2022-08-26T09:23:35.832Z,5.55
2022-08-26T09:26:05.340Z,8.93
2022-08-26T09:28:33.210Z,7.90
2022-08-26T09:31:07.951Z,18.50
2022-08-26T09:33:40.611Z,9.38
2022-08-26T09:36:16.652Z,11.75
2022-08-26T09:38:47.407Z,8.85
2022-08-26T09:41:26.202Z,13.88
2022-08-26T09:44:18.207Z,16.33
2022-08-26T09:46:50.132Z,11.50
2022-08-26T09:49:23.874Z,14.07
2022-08-26T09:52:04.398Z,13.55
2022-08-26T09:54:35.964Z,9.18
2022-08-26T09:57:18.982Z,12.60
2022-08-26T09:59:46.985Z,7.82
2022-08-26T10:02:17.755Z,8.63
2022-08-26T10:04:51.881Z,8.15
2022-08-26T10:07:38.973Z,8.30
2022-08-26T10:10:11.074Z,13.25
2022-08-26T10:12:43.251Z,12.25
2022-08-26T10:15:12.529Z,10.82
2022-08-26T10:17:43.205Z,14.85
2022-08-26T10:20:23.426Z,14.13
2022-08-26T10:22:54.510Z,10.18
2022-08-26T10:25:28.561Z,12.13
2022-08-26T10:28:01.443Z,11.02
2022-08-26T10:30:36.699Z,12.98
2022-08-26T10:33:07.086Z,8.13
2022-08-26T10:35:36.713Z,12.45
2022-08-26T10:38:09.564Z,10.55
2022-08-26T10:40:45.021Z,15.40
2022-08-26T10:43:18.756Z,15.00
2022-08-26T10:45:49.007Z,12.00
2022-08-26T10:48:22.855Z,12.32
2022-08-26T10:50:51.099Z,10.18
2022-08-26T10:53:25.289Z,12.23
2022-08-26T10:56:01.496Z,21.20
2022-08-26T10:58:50.518Z,10.65
2022-08-26T11:01:40.682Z,16.40
2022-08-26T11:04:15.462Z,8.85
2022-08-26T11:06:46.102Z,7.95
2022-08-26T11:09:34.567Z,17.27
2022-08-26T11:12:10.280Z,16.52
2022-08-26T11:14:53.083Z,13.23
2022-08-26T11:17:45.588Z,8.73
2022-08-26T11:20:32.700Z,12.02
2022-08-26T11:23:15.913Z,14.82
2022-08-26T11:26:30.019Z,10.35
2022-08-26T11:29:04.002Z,8.93
2022-08-26T11:31:52.995Z,11.18
2022-08-26T11:34:41.780Z,14.18
2022-08-26T11:37:14.349Z,10.38
2022-08-26T11:39:54.729Z,15.98
2022-08-26T11:42:28.510Z,9.48
2022-08-26T11:44:59.894Z,15.60
2022-08-26T11:47:31.786Z,11.50
2022-08-26T11:50:13.246Z,14.18
2022-08-26T11:52:41.077Z,17.23
2022-08-26T11:55:11.241Z,13.30
2022-08-26T11:57:43.474Z,12.15
2022-08-26T12:00:22.196Z,9.63
2022-08-26T12:02:52.616Z,10.43
2022-08-26T12:05:23.821Z,12.93
2022-08-26T12:07:53.150Z,9.20
2022-08-26T12:10:29.557Z,10.02
2022-08-26T12:12:58.331Z,21.88
2022-08-26T12:15:29.527Z,9.10
2022-08-26T12:17:58.068Z,11.60
2022-08-26T12:20:46.124Z,12.48
2022-08-26T12:23:25.395Z,7.20
2022-08-26T12:25:55.535Z,14.15
2022-08-26T12:28:23.371Z,11.27
2022-08-26T12:31:04.888Z,8.45
2022-08-26T12:33:35.950Z,17.58
2022-08-26T12:36:05.148Z,12.73
2022-08-26T12:38:34.076Z,7.45
2022-08-26T12:41:02.089Z,10.65
2022-08-26T12:43:47.622Z,10.35
2022-08-26T12:46:17.977Z,9.68
2022-08-26T12:48:49.679Z,8.50
2022-08-26T12:51:22.176Z,9.65
2022-08-26T12:54:02.534Z,12.93
2022-08-26T12:56:33.883Z,7.28
2022-08-26T12:59:02.894Z,9.52
2022-08-26T13:01:40.538Z,7.93
2022-08-26T13:04:12.674Z,9.18
2022-08-26T13:06:41.761Z,6.68
2022-08-26T13:09:29.186Z,6.30
2022-08-26T13:12:02.141Z,7.88
2022-08-26T13:14:31.240Z,9.88
2022-08-26T13:17:01.171Z,10.27
2022-08-26T13:19:29.660Z,8.27
2022-08-26T13:21:58.883Z,4.93
2022-08-26T13:24:28.818Z,7.78
2022-08-26T13:26:57.082Z,13.90
2022-08-26T13:29:27.011Z,6.80
2022-08-26T13:31:56.991Z,8.52
2022-08-26T13:34:28.936Z,8.18
2022-08-26T13:36:57.994Z,7.22
2022-08-26T13:39:27.125Z,9.18
2022-08-26T13:41:55.938Z,6.05
2022-08-26T13:44:23.784Z,12.20
2022-08-26T13:46:52.717Z,8.55
2022-08-26T13:49:21.024Z,12.82
2022-08-26T13:51:52.045Z,7.05
2022-08-26T13:54:20.140Z,5.97
2022-08-26T13:56:48.606Z,12.13
2022-08-26T13:59:17.764Z,6.60
2022-08-26T14:01:45.749Z,10.90
2022-08-26T14:04:13.711Z,8.82
2022-08-26T14:06:42.437Z,10.43
2022-08-26T14:09:11.668Z,10.18
2022-08-26T14:11:54.647Z,9.57
2022-08-26T14:14:22.979Z,8.35
2022-08-26T14:16:58.756Z,6.88
2022-08-26T14:19:29.770Z,8.77
2022-08-26T14:21:59.177Z,6.57
2022-08-26T14:24:28.934Z,5.03
2022-08-26T14:26:56.980Z,7.30
2022-08-26T14:29:24.823Z,9.00
2022-08-26T14:31:54.629Z,7.90
2022-08-26T14:34:23.052Z,6.82
2022-08-26T14:36:50.969Z,9.45
2022-08-26T14:39:18.861Z,12.82
2022-08-26T14:41:53.823Z,6.57
2022-08-26T14:44:23.803Z,6.50
2022-08-26T14:46:55.372Z,9.30
2022-08-26T14:49:24.076Z,5.00
2022-08-26T14:51:52.016Z,5.95
2022-08-26T14:54:19.926Z,5.07
2022-08-26T14:56:53.115Z,5.38
2022-08-26T14:59:21.923Z,10.70
2022-08-26T15:01:50.047Z,5.13
2022-08-26T15:04:20.529Z,8.30
2022-08-26T15:06:49.758Z,8.10
2022-08-26T15:09:18.156Z,6.07
2022-08-26T15:11:47.669Z,7.85
2022-08-26T15:14:19.426Z,6.18
2022-08-26T15:16:48.094Z,5.20
2022-08-26T15:19:16.209Z,8.05
2022-08-26T15:21:45.459Z,8.18
2022-08-26T15:24:13.929Z,6.72
2022-08-26T15:26:42.239Z,11.75
2022-08-26T15:29:10.056Z,9.45
2022-08-26T15:31:39.433Z,8.82
2022-08-26T15:34:12.124Z,5.95
2022-08-26T15:36:45.270Z,8.10
2022-08-26T15:39:13.404Z,7.93
2022-08-26T15:41:42.736Z,8.23
2022-08-26T15:44:12.241Z,5.75
2022-08-26T15:46:42.260Z,5.35
2022-08-26T15:49:17.593Z,6.38
2022-08-26T15:51:48.202Z,9.30
2022-08-26T15:54:17.188Z,7.97
2022-08-26T15:56:45.658Z,7.50
2022-08-26T15:59:16.311Z,7.40
2022-08-26T16:01:45.911Z,9.27
2022-08-26T16:04:14.164Z,6.60
2022-08-26T16:06:44.273Z,6.45
2022-08-26T16:09:12.330Z,7.10
2022-08-26T16:11:40.396Z,8.70
2022-08-26T16:14:08.678Z,11.98
2022-08-26T16:16:39.643Z,9.77
2022-08-26T16:19:09.258Z,9.10
2022-08-26T16:21:38.854Z,5.30
2022-08-26T16:24:07.302Z,6.07
2022-08-26T16:26:37.459Z,8.73
2022-08-26T16:29:06.855Z,6.35
2022-08-26T16:31:35.691Z,6.35
2022-08-26T16:34:04.116Z,7.97
2022-08-26T16:36:34.360Z,11.38
2022-08-26T16:39:02.612Z,8.88
2022-08-26T16:41:34.295Z,7.25
2022-08-26T16:44:02.597Z,10.43
2022-08-26T16:46:30.543Z,10.23
2022-08-26T16:48:59.608Z,5.45
2022-08-26T16:51:28.498Z,11.77
2022-08-26T16:53:59.253Z,13.30
2022-08-26T16:56:34.431Z,18.55
2022-08-26T16:59:06.031Z,9.70
2022-08-26T17:01:34.031Z,7.65
2022-08-26T17:04:02.143Z,11.13
2022-08-26T17:06:30.152Z,15.15
2022-08-26T17:08:59.522Z,9.77
2022-08-26T17:11:27.311Z,8.27
2022-08-26T17:13:55.228Z,5.53
2022-08-26T17:16:26.640Z,8.88
2022-08-26T17:18:55.818Z,9.60
2022-08-26T17:21:23.964Z,11.13
2022-08-26T17:23:52.057Z,7.70
2022-08-26T17:26:21.911Z,6.70
2022-08-26T17:28:50.351Z,13.07
2022-08-26T17:31:18.276Z,11.88
2022-08-26T17:33:53.209Z,8.95
2022-08-26T17:36:22.520Z,10.23
2022-08-26T17:38:54.305Z,16.00
2022-08-26T17:41:24.016Z,9.95
2022-08-26T17:43:52.314Z,9.35
2022-08-26T17:46:20.268Z,13.52
2022-08-26T17:48:48.454Z,16.60
2022-08-26T17:51:20.018Z,15.88
2022-08-26T17:53:48.802Z,13.10
2022-08-26T17:56:17.786Z,11.57
2022-08-26T17:58:51.471Z,11.15
2022-08-26T18:01:21.431Z,11.15
2022-08-26T18:03:49.574Z,12.43
2022-08-26T18:06:17.481Z,11.15
2022-08-26T18:08:46.024Z,10.50
2022-08-26T18:11:17.274Z,13.20
2022-08-26T18:13:47.377Z,8.35
2022-08-26T18:16:19.707Z,12.88
2022-08-26T18:18:48.686Z,16.92
2022-08-26T18:21:18.890Z,11.40
2022-08-26T18:23:47.904Z,12.90
2022-08-26T18:26:19.610Z,13.80
2022-08-26T18:28:48.491Z,10.52
2022-08-26T18:31:17.107Z,11.05
2022-08-26T18:33:47.328Z,10.02
2022-08-26T18:36:19.790Z,10.38
2022-08-26T18:38:47.841Z,8.50
2022-08-26T18:41:21.022Z,10.02
2022-08-26T18:43:50.899Z,8.20
2022-08-26T18:46:19.241Z,18.70
2022-08-26T18:48:50.928Z,10.88
2022-08-26T18:51:20.330Z,11.55
2022-08-26T18:53:48.280Z,9.60
2022-08-26T18:56:18.536Z,11.13
2022-08-26T18:58:47.224Z,11.70
2022-08-26T19:01:15.616Z,8.07
2022-08-26T19:03:44.038Z,5.83
2022-08-26T19:06:15.833Z,8.38
2022-08-26T19:08:44.663Z,6.47
2022-08-26T19:11:13.936Z,14.07
2022-08-26T19:13:42.152Z,4.80
2022-08-26T19:16:15.540Z,5.87
2022-08-26T19:18:43.650Z,11.97
2022-08-26T19:21:11.495Z,6.50
2022-08-26T19:23:41.946Z,7.30
2022-08-26T19:26:10.114Z,11.03
2022-08-26T19:28:39.968Z,6.50
2022-08-26T19:31:10.479Z,7.67
2022-08-26T19:33:39.572Z,11.17
2022-08-26T19:36:12.627Z,9.10
2022-08-26T19:38:44.217Z,9.70
2022-08-26T19:41:13.159Z,7.97
2022-08-26T19:43:41.643Z,7.40
2022-08-26T19:46:10.879Z,9.73
2022-08-26T19:48:38.715Z,8.57
2022-08-26T19:51:06.999Z,7.93
2022-08-26T19:53:35.015Z,8.17
2022-08-26T19:56:05.191Z,6.80
2022-08-26T19:58:33.035Z,10.30
2022-08-26T20:01:01.019Z,6.90
2022-08-26T20:03:29.292Z,11.20
2022-08-26T20:05:57.534Z,9.07
2022-08-26T20:08:25.842Z,7.10
2022-08-26T20:10:57.920Z,6.77
2022-08-26T20:13:27.763Z,10.17
2022-08-26T20:15:55.887Z,8.07
2022-08-26T20:18:41.723Z,11.80
2022-08-26T20:21:28.192Z,5.27
2022-08-26T20:23:57.375Z,7.80
2022-08-26T20:26:26.078Z,9.50
2022-08-26T20:28:56.644Z,11.47
2022-08-26T20:31:25.266Z,6.53
2022-08-26T20:33:53.883Z,4.43
2022-08-26T20:36:24.932Z,6.83
2022-08-26T20:38:52.893Z,6.40
2022-08-26T20:41:20.723Z,8.40
2022-08-26T20:43:50.115Z,4.53
2022-08-26T20:46:22.934Z,7.13
2022-08-26T20:48:52.527Z,7.43
2022-08-26T20:51:21.106Z,7.20
2022-08-26T20:53:48.952Z,8.80
2022-08-26T20:56:19.361Z,9.10
2022-08-26T20:58:47.300Z,12.83
2022-08-26T21:01:18.761Z,12.63
2022-08-26T21:03:51.579Z,10.03
2022-08-26T21:06:19.925Z,7.33
2022-08-26T21:08:48.550Z,8.77
2022-08-26T21:11:17.470Z,9.37
2022-08-26T21:14:03.868Z,8.33
2022-08-26T21:16:32.812Z,6.13
2022-08-26T21:19:02.348Z,8.83
2022-08-26T21:21:30.624Z,7.93
2022-08-26T21:23:59.756Z,6.43
2022-08-26T21:26:27.818Z,9.70
2022-08-26T21:28:59.611Z,7.23
2022-08-26T21:31:29.993Z,6.17
2022-08-26T21:33:58.986Z,13.10
2022-08-26T21:36:28.473Z,7.60
2022-08-26T21:38:58.017Z,7.53
2022-08-26T21:41:26.163Z,11.17
2022-08-26T21:43:58.128Z,5.43
2022-08-26T21:46:27.473Z,10.50
2022-08-26T21:48:56.755Z,10.33
2022-08-26T21:51:25.852Z,7.40
2022-08-26T21:53:55.627Z,5.23
2022-08-26T21:56:24.271Z,6.67
2022-08-26T21:58:52.495Z,7.03
2022-08-26T22:01:21.906Z,9.50
2022-08-26T22:03:50.632Z,5.80
2022-08-26T22:06:19.638Z,12.73
2022-08-26T22:08:47.979Z,9.93
2022-08-26T22:11:18.108Z,8.77
2022-08-26T22:13:46.194Z,6.67
2022-08-26T22:16:14.890Z,8.83
2022-08-26T22:18:45.887Z,9.30
2022-08-26T22:21:16.105Z,8.33
2022-08-26T22:23:44.338Z,9.07
2022-08-26T22:26:13.029Z,5.87
2022-08-26T22:28:42.865Z,11.63
2022-08-26T22:31:11.464Z,7.33
2022-08-26T22:33:39.476Z,8.33
2022-08-26T22:36:08.721Z,8.77
2022-08-26T22:38:36.666Z,13.63
2022-08-26T22:41:08.289Z,8.47
2022-08-26T22:43:37.344Z,4.43
2022-08-26T22:46:09.602Z,7.43
2022-08-26T22:48:38.921Z,7.40
2022-08-26T22:51:06.783Z,6.60
2022-08-26T22:53:35.267Z,10.33
2022-08-26T22:56:07.035Z,10.03
2022-08-26T22:58:35.102Z,8.47
2022-08-26T23:01:03.656Z,6.17
2022-08-26T23:03:33.534Z,8.20
2022-08-26T23:06:04.336Z,12.83
2022-08-26T23:08:32.635Z,9.70
2022-08-26T23:11:03.998Z,6.13
2022-08-26T23:13:32.009Z,10.07
2022-08-26T23:16:03.861Z,11.20
2022-08-26T23:18:34.270Z,8.43
2022-08-26T23:21:02.894Z,14.07
2022-08-26T23:23:31.203Z,10.93
2022-08-26T23:26:03.335Z,9.43
2022-08-26T23:28:35.320Z,8.90
2022-08-26T23:31:03.171Z,11.13
2022-08-26T23:33:45.546Z,7.67
2022-08-26T23:36:18.066Z,6.53
2022-08-26T23:38:47.654Z,6.13
2022-08-26T23:41:22.403Z,8.73
2022-08-26T23:43:51.636Z,7.97
2022-08-26T23:46:19.689Z,7.47
2022-08-26T23:48:47.512Z,9.77
2022-08-26T23:51:34.798Z,6.30
2022-08-26T23:54:02.993Z,9.63
2022-08-26T23:56:31.115Z,6.40
2022-08-26T23:58:59.440Z,8.93
